createdAt,value
2019-05-25T00:01:44.665Z,66.00
2019-05-25T00:04:13.381Z,65.66
2019-05-25T00:06:42.103Z,65.84
2019-05-25T00:09:10.860Z,65.66
2019-05-25T00:11:39.639Z,65.62
2019-05-25T00:14:08.366Z,65.70
2019-05-25T00:16:37.119Z,65.71
2019-05-25T00:19:05.839Z,66.07
2019-05-25T00:21:34.554Z,66.28
2019-05-25T00:24:11.807Z,66.43
2019-05-25T00:26:33.706Z,65.82
2019-05-25T00:29:02.476Z,65.50
2019-05-25T00:31:31.288Z,65.59
2019-05-25T00:33:59.993Z,65.31
2019-05-25T00:36:28.715Z,65.15
2019-05-25T00:38:57.433Z,65.37
2019-05-25T00:41:26.231Z,64.37
2019-05-25T00:43:54.935Z,64.10
2019-05-25T00:46:23.655Z,63.75
2019-05-25T00:48:52.402Z,63.05
2019-05-25T00:51:21.119Z,62.97
2019-05-25T00:53:49.836Z,62.99
2019-05-25T00:56:18.555Z,62.25
2019-05-25T00:58:47.268Z,62.03
2019-05-25T01:03:53.627Z,62.74
2019-05-25T01:06:22.335Z,63.00
2019-05-25T01:08:51.056Z,63.31
2019-05-25T01:11:19.773Z,63.48
2019-05-25T01:13:48.522Z,64.40
2019-05-25T01:16:17.235Z,64.42
2019-05-25T01:18:45.942Z,64.26
2019-05-25T01:21:14.661Z,64.88
2019-05-25T01:23:43.384Z,65.00
2019-05-25T01:26:12.146Z,65.27
2019-05-25T01:28:40.851Z,64.90
2019-05-25T01:31:09.568Z,64.79
2019-05-25T01:33:38.285Z,65.35
2019-05-25T01:36:06.998Z,65.52
2019-05-25T01:38:35.765Z,65.44
2019-05-25T01:41:04.465Z,65.15
2019-05-25T01:43:33.190Z,65.75
2019-05-25T01:46:01.905Z,66.25
2019-05-25T01:48:30.605Z,67.72
2019-05-25T01:50:59.353Z,68.65
2019-05-25T01:53:28.365Z,69.21
2019-05-25T01:55:57.084Z,69.07
2019-05-25T01:58:25.801Z,69.32
2019-05-25T02:00:54.520Z,69.32
2019-05-25T02:03:23.426Z,68.74
2019-05-25T02:05:52.093Z,68.86
2019-05-25T02:08:20.802Z,69.66
2019-05-25T02:10:49.519Z,69.80
2019-05-25T02:13:18.235Z,69.60
2019-05-25T02:15:47.094Z,70.02
2019-05-25T02:18:15.812Z,70.31
2019-05-25T02:20:44.541Z,70.01
2019-05-25T02:23:13.259Z,69.46
2019-05-25T02:25:41.968Z,69.04
2019-05-25T02:28:10.679Z,68.68
2019-05-25T02:30:39.399Z,68.43
2019-05-25T02:33:08.139Z,68.13
2019-05-25T02:35:36.844Z,68.12
2019-05-25T02:38:05.556Z,68.19
2019-05-25T02:40:34.265Z,67.84
2019-05-25T02:43:03.081Z,67.98
2019-05-25T02:45:31.834Z,68.49
2019-05-25T02:48:00.551Z,68.56
2019-05-25T02:50:29.274Z,68.45
2019-05-25T02:52:58.028Z,68.21
2019-05-25T02:55:34.202Z,68.44
2019-05-25T02:57:57.193Z,68.60
2019-05-25T03:00:33.767Z,68.63
2019-05-25T03:03:03.386Z,68.40
2019-05-25T03:05:32.223Z,68.57
2019-05-25T03:08:00.954Z,67.99
2019-05-25T03:10:31.251Z,68.00
2019-05-25T03:13:02.274Z,68.00
2019-05-25T03:15:30.979Z,67.71
2019-05-25T03:17:59.805Z,67.44
2019-05-25T03:20:28.543Z,67.08
2019-05-25T03:22:57.249Z,66.63
2019-05-25T03:25:25.965Z,65.07
2019-05-25T03:27:54.684Z,63.77
2019-05-25T03:30:37.468Z,62.62
2019-05-25T03:33:06.283Z,63.47
2019-05-25T03:35:34.983Z,64.47
2019-05-25T03:38:03.754Z,64.98
2019-05-25T03:40:32.457Z,64.94
2019-05-25T03:43:01.169Z,65.13
2019-05-25T03:45:29.913Z,65.48
2019-05-25T03:47:58.630Z,65.50
2019-05-25T03:50:27.341Z,65.53
2019-05-25T03:52:56.097Z,64.96
2019-05-25T03:55:24.805Z,64.43
2019-05-25T03:57:53.507Z,64.07
2019-05-25T04:00:33.555Z,63.47
2019-05-25T04:03:02.260Z,62.95
2019-05-25T04:05:31.167Z,63.09
2019-05-25T04:07:59.885Z,61.93
2019-05-25T04:10:28.737Z,61.07
2019-05-25T04:12:57.649Z,58.68
2019-05-25T04:15:26.397Z,56.34
2019-05-25T04:17:55.116Z,53.17
2019-05-25T04:20:23.825Z,52.96
2019-05-25T04:22:52.568Z,53.37
2019-05-25T04:25:21.279Z,56.17
2019-05-25T04:27:49.990Z,55.71
2019-05-25T04:30:18.734Z,55.37
2019-05-25T04:32:47.434Z,55.80
2019-05-25T04:35:16.147Z,56.34
2019-05-25T04:37:44.856Z,55.42
2019-05-25T04:40:13.568Z,55.79
2019-05-25T04:42:42.313Z,55.03
2019-05-25T04:45:11.412Z,54.47
2019-05-25T04:47:40.121Z,54.96
2019-05-25T04:50:08.926Z,55.43
2019-05-25T04:52:40.960Z,54.49
2019-05-25T04:55:08.312Z,51.07
2019-05-25T04:57:37.036Z,47.76
2019-05-25T05:00:08.900Z,47.16
2019-05-25T05:02:37.622Z,44.74
2019-05-25T05:05:06.842Z,44.16
2019-05-25T05:07:35.597Z,42.81
2019-05-25T05:10:06.904Z,41.16
2019-05-25T05:12:35.613Z,40.16
2019-05-25T05:15:05.831Z,40.59
2019-05-25T05:17:34.545Z,40.94
2019-05-25T05:20:03.314Z,40.87
2019-05-25T05:22:32.016Z,40.90
2019-05-25T05:25:00.724Z,41.55
2019-05-25T05:27:29.441Z,43.55
2019-05-25T05:29:58.172Z,46.00
2019-05-25T05:32:28.012Z,46.72
2019-05-25T05:34:57.069Z,47.21
2019-05-25T05:37:25.823Z,46.85
2019-05-25T05:39:56.182Z,47.38
2019-05-25T05:42:25.185Z,47.06
2019-05-25T05:44:56.078Z,47.72
2019-05-25T05:47:26.390Z,47.16
2019-05-25T05:49:56.149Z,47.57
2019-05-25T05:52:27.210Z,47.47
2019-05-25T05:54:58.869Z,44.66
2019-05-25T05:57:27.583Z,44.94
2019-05-25T05:59:56.296Z,45.20
2019-05-25T06:02:25.073Z,46.25
2019-05-25T06:04:53.781Z,47.51
2019-05-25T06:07:22.483Z,48.19
2019-05-25T06:09:51.237Z,48.46
2019-05-25T06:12:19.943Z,47.92
2019-05-25T06:14:48.639Z,48.07
2019-05-25T06:17:17.363Z,48.11
2019-05-25T06:19:46.069Z,47.62
2019-05-25T06:22:14.831Z,46.95
2019-05-25T06:24:43.538Z,46.41
2019-05-25T06:27:26.385Z,46.28
2019-05-25T06:29:42.721Z,45.89
2019-05-25T06:32:11.477Z,45.11
2019-05-25T06:34:40.198Z,45.09
2019-05-25T06:37:08.914Z,45.18
2019-05-25T06:39:37.638Z,45.71
2019-05-25T06:42:06.359Z,46.43
2019-05-25T06:44:35.069Z,46.08
2019-05-25T06:47:04.273Z,45.90
2019-05-25T06:49:32.983Z,46.45
2019-05-25T06:52:01.695Z,46.95
2019-05-25T06:54:30.428Z,47.00
2019-05-25T06:56:59.138Z,47.23
2019-05-25T06:59:27.844Z,47.69
2019-05-25T07:01:56.795Z,48.18
2019-05-25T07:04:25.522Z,48.27
2019-05-25T07:06:54.268Z,48.18
2019-05-25T07:09:23.024Z,48.18
2019-05-25T07:11:51.775Z,47.99
2019-05-25T07:14:20.493Z,47.45
2019-05-25T07:16:49.192Z,48.15
2019-05-25T07:19:17.937Z,47.88
2019-05-25T07:21:46.641Z,47.01
2019-05-25T07:24:15.360Z,47.07
2019-05-25T07:26:44.086Z,47.59
2019-05-25T07:29:12.792Z,48.07
2019-05-25T07:31:41.547Z,48.20
2019-05-25T07:34:10.249Z,46.97
2019-05-25T07:36:38.774Z,46.92
2019-05-25T07:39:08.320Z,47.28
2019-05-25T07:41:37.031Z,47.31
2019-05-25T07:44:05.778Z,46.61
2019-05-25T07:46:34.529Z,46.54
2019-05-25T07:49:03.232Z,46.63
2019-05-25T07:51:31.981Z,46.15
2019-05-25T07:54:00.739Z,46.67
2019-05-25T07:56:29.490Z,46.13
2019-05-25T07:58:58.206Z,46.21
2019-05-25T08:01:26.907Z,46.24
2019-05-25T08:03:55.637Z,46.57
2019-05-25T08:06:24.339Z,45.94
2019-05-25T08:08:53.087Z,45.93
2019-05-25T08:11:21.792Z,45.94
2019-05-25T08:13:50.492Z,45.99
2019-05-25T08:16:19.209Z,44.24
2019-05-25T08:18:47.918Z,44.85
2019-05-25T08:21:16.666Z,44.27
2019-05-25T08:23:45.377Z,44.06
2019-05-25T08:26:14.088Z,44.05
2019-05-25T08:28:42.808Z,44.26
2019-05-25T08:31:11.541Z,44.32
2019-05-25T08:33:40.292Z,44.83
2019-05-25T08:36:09.001Z,44.84
2019-05-25T08:38:37.709Z,45.58
2019-05-25T08:41:06.425Z,46.25
2019-05-25T08:43:35.134Z,44.64
2019-05-25T08:46:03.885Z,45.23
2019-05-25T08:48:32.590Z,45.33
2019-05-25T08:51:01.299Z,44.83
2019-05-25T08:53:40.545Z,44.14
2019-05-25T08:56:00.497Z,44.36
2019-05-25T08:58:29.219Z,42.71
2019-05-25T09:00:57.917Z,42.84
2019-05-25T09:03:26.670Z,42.14
2019-05-25T09:05:55.430Z,42.24
2019-05-25T09:08:24.127Z,42.35
2019-05-25T09:10:52.838Z,42.94
2019-05-25T09:13:21.576Z,42.83
2019-05-25T09:15:50.300Z,43.21
2019-05-25T09:18:19.065Z,43.70
2019-05-25T09:20:47.768Z,43.59
2019-05-25T09:23:16.488Z,43.73
2019-05-25T09:25:45.200Z,43.03
2019-05-25T09:28:13.917Z,43.27
2019-05-25T09:30:42.665Z,43.90
2019-05-25T09:33:11.459Z,43.10
2019-05-25T09:35:40.273Z,42.72
2019-05-25T09:38:08.988Z,42.18
2019-05-25T09:40:37.693Z,41.43
2019-05-25T09:43:06.436Z,42.21
2019-05-25T09:45:35.143Z,43.33
2019-05-25T09:48:03.844Z,44.65
2019-05-25T09:50:32.593Z,45.30
2019-05-25T09:53:01.300Z,45.53
2019-05-25T09:55:30.002Z,45.25
2019-05-25T09:57:58.727Z,44.15
2019-05-25T10:00:28.040Z,43.89
2019-05-25T10:02:56.796Z,40.05
2019-05-25T10:05:25.501Z,41.90
2019-05-25T10:07:54.284Z,39.74
2019-05-25T10:10:24.450Z,40.56
2019-05-25T10:12:53.131Z,41.57
2019-05-25T10:15:21.906Z,41.22
2019-05-25T10:17:50.608Z,40.52
2019-05-25T10:20:19.513Z,42.01
2019-05-25T10:22:48.268Z,41.05
2019-05-25T10:25:17.080Z,41.23
2019-05-25T10:27:45.801Z,41.21
2019-05-25T10:30:15.146Z,39.97
2019-05-25T10:32:43.876Z,40.88
2019-05-25T10:35:13.376Z,41.74
2019-05-25T10:37:42.125Z,42.38
2019-05-25T10:40:11.143Z,41.82
2019-05-25T10:42:39.843Z,41.11
2019-05-25T10:45:09.917Z,41.38
2019-05-25T10:47:38.737Z,41.32
2019-05-25T10:50:10.960Z,41.22
2019-05-25T10:52:39.641Z,40.51
2019-05-25T10:55:08.945Z,40.78
2019-05-25T10:57:38.317Z,40.64
2019-05-25T11:00:12.118Z,40.66
2019-05-25T11:02:40.837Z,40.74
2019-05-25T11:05:10.772Z,40.67
2019-05-25T11:07:39.485Z,40.00
2019-05-25T11:10:10.698Z,40.04
2019-05-25T11:12:39.409Z,40.29
2019-05-25T11:15:09.028Z,40.11
2019-05-25T11:17:37.747Z,40.71
2019-05-25T11:20:09.027Z,40.08
2019-05-25T11:22:37.794Z,41.00
2019-05-25T11:25:08.201Z,40.27
2019-05-25T11:27:36.909Z,41.29
2019-05-25T11:30:10.738Z,42.23
2019-05-25T11:32:39.611Z,40.33
2019-05-25T11:35:09.055Z,40.72
2019-05-25T11:37:37.753Z,40.76
2019-05-25T11:40:09.379Z,41.04
2019-05-25T11:42:38.074Z,40.64
2019-05-25T11:45:08.876Z,41.52
2019-05-25T11:47:37.659Z,40.38
2019-05-25T11:50:08.228Z,39.28
2019-05-25T11:52:36.933Z,37.80
2019-05-25T11:55:10.007Z,38.13
2019-05-25T11:57:38.715Z,36.94
2019-05-25T12:00:24.375Z,36.66
2019-05-25T12:02:45.723Z,36.70
2019-05-25T12:05:14.557Z,37.47
2019-05-25T12:07:44.968Z,39.23
2019-05-25T12:10:14.132Z,37.73
2019-05-25T12:12:42.854Z,37.96
2019-05-25T12:15:12.002Z,37.29
2019-05-25T12:17:40.713Z,37.15
2019-05-25T12:20:09.929Z,36.39
2019-05-25T12:22:38.644Z,36.64
2019-05-25T12:25:08.161Z,36.32
2019-05-25T12:27:36.938Z,35.94
2019-05-25T12:30:08.983Z,36.42
2019-05-25T12:32:37.682Z,36.93
2019-05-25T12:35:08.340Z,38.39
2019-05-25T12:37:37.045Z,37.75
2019-05-25T12:40:09.008Z,37.48
2019-05-25T12:42:37.730Z,36.75
2019-05-25T12:45:07.735Z,36.29
2019-05-25T12:47:36.705Z,36.35
2019-05-25T12:50:09.431Z,36.75
2019-05-25T12:52:38.151Z,36.28
2019-05-25T12:55:07.555Z,35.59
2019-05-25T12:57:36.264Z,36.04
2019-05-25T13:00:15.389Z,37.00
2019-05-25T13:02:37.550Z,36.79
2019-05-25T13:05:07.790Z,36.23
2019-05-25T13:07:36.535Z,36.13
2019-05-25T13:10:08.928Z,36.47
2019-05-25T13:12:37.652Z,37.23
2019-05-25T13:15:07.151Z,37.17
2019-05-25T13:17:35.906Z,36.72
2019-05-25T13:20:08.130Z,36.31
2019-05-25T13:22:36.830Z,36.44
2019-05-25T13:25:07.320Z,36.97
2019-05-25T13:27:36.024Z,35.98
2019-05-25T13:30:09.180Z,36.97
2019-05-25T13:32:37.882Z,36.97
2019-05-25T13:35:07.684Z,37.07
2019-05-25T13:37:36.403Z,36.53
2019-05-25T13:40:06.985Z,36.79
2019-05-25T13:42:35.736Z,36.94
2019-05-25T13:45:06.785Z,37.30
2019-05-25T13:47:35.480Z,37.30
2019-05-25T13:50:07.619Z,38.08
2019-05-25T13:52:36.331Z,37.76
2019-05-25T13:55:06.079Z,37.71
2019-05-25T13:57:34.766Z,38.46
2019-05-25T14:00:04.073Z,37.57
2019-05-25T14:02:32.831Z,35.99
2019-05-25T14:05:01.565Z,36.09
2019-05-25T14:07:30.255Z,36.76
2019-05-25T14:09:58.969Z,37.44
2019-05-25T14:12:27.669Z,38.26
2019-05-25T14:14:56.411Z,38.18
2019-05-25T14:17:25.115Z,38.15
2019-05-25T14:19:53.924Z,38.91
2019-05-25T14:22:22.646Z,38.82
2019-05-25T14:24:51.355Z,38.81
2019-05-25T14:27:20.212Z,39.04
2019-05-25T14:29:48.911Z,39.79
2019-05-25T14:32:17.623Z,39.20
2019-05-25T14:34:46.333Z,39.93
2019-05-25T14:37:15.035Z,40.17
2019-05-25T14:39:43.796Z,40.39
2019-05-25T14:42:12.511Z,39.20
2019-05-25T14:44:41.213Z,39.87
2019-05-25T14:47:09.972Z,40.12
2019-05-25T14:49:38.669Z,39.94
2019-05-25T14:52:07.418Z,40.66
2019-05-25T14:54:36.178Z,39.93
2019-05-25T14:57:04.885Z,40.01
2019-05-25T14:59:33.772Z,40.16
2019-05-25T15:02:03.807Z,40.25
2019-05-25T15:04:32.701Z,40.63
2019-05-25T15:07:01.529Z,41.08
2019-05-25T15:09:30.245Z,40.93
2019-05-25T15:11:58.962Z,41.21
2019-05-25T15:14:27.672Z,41.27
2019-05-25T15:16:56.384Z,41.53
2019-05-25T15:19:25.147Z,41.63
2019-05-25T15:21:54.207Z,41.76
2019-05-25T15:24:23.346Z,41.68
2019-05-25T15:26:52.091Z,41.75
2019-05-25T15:29:20.796Z,41.96
2019-05-25T15:31:49.503Z,42.06
2019-05-25T15:34:18.219Z,41.62
2019-05-25T15:36:46.928Z,40.88
2019-05-25T15:39:15.694Z,40.58
2019-05-25T15:41:44.404Z,40.60
2019-05-25T15:44:13.109Z,41.17
2019-05-25T15:46:41.846Z,41.43
2019-05-25T15:49:10.539Z,41.17
2019-05-25T15:51:39.290Z,40.85
2019-05-25T15:54:10.574Z,41.23
2019-05-25T15:56:38.502Z,41.43
2019-05-25T15:59:07.251Z,41.63
2019-05-25T16:01:35.952Z,41.74
2019-05-25T16:04:04.770Z,41.51
2019-05-25T16:06:33.617Z,41.21
2019-05-25T16:09:02.402Z,41.49
2019-05-25T16:11:32.273Z,41.56
2019-05-25T16:14:01.428Z,41.77
2019-05-25T16:16:30.500Z,42.19
2019-05-25T16:18:59.241Z,42.57
2019-05-25T16:21:27.954Z,42.51
2019-05-25T16:23:56.678Z,42.84
2019-05-25T16:26:25.394Z,41.58
2019-05-25T16:28:54.105Z,39.92
2019-05-25T16:31:22.872Z,38.70
2019-05-25T16:33:51.580Z,37.88
2019-05-25T16:36:20.293Z,38.59
2019-05-25T16:38:49.059Z,38.59
2019-05-25T16:41:17.773Z,38.73
2019-05-25T16:43:46.682Z,38.79
2019-05-25T16:46:15.433Z,38.97
2019-05-25T16:48:44.191Z,39.13
2019-05-25T16:51:12.940Z,39.48
2019-05-25T16:53:41.645Z,40.90
2019-05-25T16:56:10.357Z,41.61
2019-05-25T16:58:39.067Z,42.28
2019-05-25T17:01:07.774Z,42.00
2019-05-25T17:03:36.526Z,41.64
2019-05-25T17:06:05.232Z,42.37
2019-05-25T17:08:33.996Z,43.18
2019-05-25T17:11:03.994Z,43.91
2019-05-25T17:13:33.082Z,44.76
2019-05-25T17:16:01.847Z,44.81
2019-05-25T17:18:30.560Z,45.56
2019-05-25T17:20:59.276Z,46.37
2019-05-25T17:23:28.029Z,46.39
2019-05-25T17:25:56.775Z,46.72
2019-05-25T17:28:25.447Z,47.31
2019-05-25T17:30:54.169Z,47.46
2019-05-25T17:33:22.888Z,47.85
2019-05-25T17:35:51.622Z,47.98
2019-05-25T17:38:20.338Z,48.12
2019-05-25T17:40:49.072Z,48.36
2019-05-25T17:43:17.785Z,48.61
2019-05-25T17:45:46.492Z,48.86
2019-05-25T17:48:15.203Z,49.09
2019-05-25T17:50:43.940Z,49.24
2019-05-25T17:53:12.632Z,49.24
2019-05-25T17:55:41.353Z,49.33
2019-05-25T17:58:10.116Z,49.46
2019-05-25T18:00:47.818Z,49.40
2019-05-25T18:03:16.526Z,49.60
2019-05-25T18:05:45.824Z,49.47
2019-05-25T18:08:14.518Z,49.23
2019-05-25T18:10:52.642Z,49.00
2019-05-25T18:13:13.672Z,49.29
2019-05-25T18:15:42.386Z,49.61
2019-05-25T18:18:11.132Z,49.57
2019-05-25T18:20:39.848Z,49.78
2019-05-25T18:23:08.553Z,49.95
2019-05-25T18:25:37.328Z,50.02
2019-05-25T18:28:06.222Z,50.19
2019-05-25T18:30:35.023Z,50.38
2019-05-25T18:33:03.832Z,50.05
2019-05-25T18:35:32.536Z,50.39
2019-05-25T18:38:01.284Z,50.37
2019-05-25T18:40:30.027Z,50.29
2019-05-25T18:42:58.730Z,49.92
2019-05-25T18:45:27.438Z,49.97
2019-05-25T18:47:56.142Z,50.17
2019-05-25T18:50:24.883Z,50.29
2019-05-25T18:52:53.589Z,50.30
2019-05-25T18:55:22.488Z,50.45
2019-05-25T18:57:51.235Z,50.35
2019-05-25T19:00:20.613Z,50.61
2019-05-25T19:02:49.271Z,50.49
2019-05-25T19:05:18.296Z,50.69
2019-05-25T19:07:47.004Z,50.49
2019-05-25T19:10:16.245Z,50.47
2019-05-25T19:12:44.955Z,50.53
2019-05-25T19:15:14.256Z,50.64
2019-05-25T19:17:42.996Z,50.71
2019-05-25T19:20:20.030Z,50.52
2019-05-25T19:22:44.147Z,50.88
2019-05-25T19:25:14.172Z,50.90
2019-05-25T19:27:43.370Z,50.87
2019-05-25T19:30:12.775Z,50.80
2019-05-25T19:32:41.471Z,50.84
2019-05-25T19:35:12.463Z,50.77
2019-05-25T19:37:42.505Z,50.92
2019-05-25T19:40:12.060Z,50.90
2019-05-25T19:42:40.807Z,51.25
2019-05-25T19:45:10.444Z,51.38
2019-05-25T19:47:39.158Z,51.33
2019-05-25T19:50:11.326Z,51.56
2019-05-25T19:52:40.037Z,51.92
2019-05-25T19:55:09.101Z,52.03
2019-05-25T19:57:37.814Z,52.14
2019-05-25T20:00:07.723Z,52.08
2019-05-25T20:02:36.446Z,52.08
2019-05-25T20:07:35.957Z,52.64
2019-05-25T20:10:06.704Z,53.22
2019-05-25T20:12:35.421Z,53.35
2019-05-25T20:15:05.807Z,53.28
2019-05-25T20:17:34.525Z,53.28
2019-05-25T20:20:03.294Z,53.04
2019-05-25T20:22:32.009Z,53.33
2019-05-25T20:25:00.710Z,53.09
2019-05-25T20:27:29.426Z,53.27
2019-05-25T20:29:58.139Z,53.23
2019-05-25T20:32:26.892Z,53.46
2019-05-25T20:34:55.610Z,53.61
2019-05-25T20:37:24.321Z,53.32
2019-05-25T20:39:53.075Z,53.66
2019-05-25T20:42:21.790Z,53.87
2019-05-25T20:44:50.842Z,54.00
2019-05-25T20:47:19.554Z,53.96
2019-05-25T20:49:48.275Z,54.14
2019-05-25T20:52:17.022Z,54.35
2019-05-25T20:54:45.736Z,54.54
2019-05-25T20:57:14.431Z,54.58
2019-05-25T20:59:43.138Z,54.25
2019-05-25T21:02:11.852Z,54.38
2019-05-25T21:04:40.595Z,54.34
2019-05-25T21:07:09.297Z,54.29
2019-05-25T21:09:38.008Z,54.22
2019-05-25T21:12:06.846Z,54.57
2019-05-25T21:14:35.607Z,53.96
2019-05-25T21:17:04.319Z,54.29
2019-05-25T21:19:33.033Z,54.22
2019-05-25T21:22:01.740Z,54.41
2019-05-25T21:24:30.494Z,54.50
2019-05-25T21:26:59.193Z,54.57
2019-05-25T21:29:27.927Z,54.59
2019-05-25T21:31:56.646Z,54.96
2019-05-25T21:34:25.360Z,54.84
2019-05-25T21:36:54.106Z,55.64
2019-05-25T21:39:22.815Z,55.49
2019-05-25T21:41:51.528Z,55.21
2019-05-25T21:44:20.276Z,55.00
2019-05-25T21:46:48.983Z,55.03
2019-05-25T21:49:17.714Z,55.33
2019-05-25T21:51:46.411Z,55.35
2019-05-25T21:54:15.120Z,55.37
2019-05-25T21:56:43.883Z,55.15
2019-05-25T21:59:12.585Z,55.18
2019-05-25T22:01:41.296Z,55.11
2019-05-25T22:04:09.996Z,55.36
2019-05-25T22:06:38.703Z,55.36
2019-05-25T22:09:08.341Z,55.64
2019-05-25T22:11:37.557Z,55.42
2019-05-25T22:14:06.273Z,55.37
2019-05-25T22:16:34.998Z,55.24
2019-05-25T22:19:03.705Z,55.08
2019-05-25T22:21:32.408Z,54.67
2019-05-25T22:24:01.122Z,54.72
2019-05-25T22:26:29.844Z,54.94
2019-05-25T22:28:58.564Z,54.94
2019-05-25T22:31:27.282Z,54.87
2019-05-25T22:33:59.211Z,55.37
2019-05-25T22:36:39.143Z,55.39
2019-05-25T22:38:56.896Z,55.39
2019-05-25T22:41:25.607Z,55.27
2019-05-25T22:43:54.317Z,55.46
2019-05-25T22:46:23.031Z,55.47
2019-05-25T22:48:51.767Z,55.53
2019-05-25T22:51:20.470Z,55.61
2019-05-25T22:53:49.176Z,55.48
2019-05-25T22:56:17.895Z,55.40
2019-05-25T22:58:46.604Z,55.29
2019-05-25T23:01:15.363Z,55.41
2019-05-25T23:03:44.067Z,55.23
2019-05-25T23:06:12.774Z,55.22
2019-05-25T23:08:41.564Z,55.06
2019-05-25T23:11:10.266Z,55.11
2019-05-25T23:13:38.975Z,55.08
2019-05-25T23:16:09.288Z,55.19
2019-05-25T23:18:37.987Z,55.36
2019-05-25T23:21:06.692Z,55.34
2019-05-25T23:23:35.403Z,55.26
2019-05-25T23:26:04.121Z,55.17
2019-05-25T23:28:32.851Z,55.12
2019-05-25T23:31:01.551Z,55.04
2019-05-25T23:33:30.258Z,54.91
2019-05-25T23:35:59.012Z,55.11
2019-05-25T23:38:27.727Z,55.85
2019-05-25T23:40:56.439Z,56.50
2019-05-25T23:43:25.140Z,56.80
2019-05-25T23:45:53.850Z,57.43
2019-05-25T23:48:22.596Z,57.24
2019-05-25T23:50:51.291Z,57.86
2019-05-25T23:53:20.002Z,58.33
2019-05-25T23:55:48.758Z,58.09
2019-05-25T23:58:17.464Z,57.93
